Maersk Dispatcher — XJAJ — position and weather

sailwx.info

Track history (hours):
 
Tides and Currents Weather Stations Pressure Air Temp Water Temp Dewpoint Dewpoint Depression Visibility Wind Speed Wind Dir Waves Ship Positions

Maersk Dispatcher

Last reported at 2014-Sep-19 03:17 UTC. Time now 2014-Sep-20 14:01 UTC.
Position N 47°26' W 051°50'.

Length 89 m; draft 6.9 m.

Type: Other ship. MMSI: 316013080.

Date/timePositionNaut miles runAvg speedWind from/ knotsBaromVisibWave heightAir tempDewpointWater temp
2014-Sep-19 03:17N 47°26' W 051°50'1114.5
2014-Sep-19 02:30N 47°28' W 052°06'1414.2
2014-Sep-19 01:29N 47°32' W 052°26'1110.4
2014-Sep-19 00:28N 47°34' W 052°42'0 0.0
2014-Sep-18 23:28N 47°34' W 052°42'0 0.0
2014-Sep-18 22:34N 47°34' W 052°42'0 0.2
2014-Sep-18 21:25N 47°34' W 052°42'0 0.0
2014-Sep-18 20:25N 47°34' W 052°42'0 0.0
2014-Sep-18 19:34N 47°34' W 052°42'0 0.0
2014-Sep-18 18:22N 47°34' W 052°42'0 0.0
2014-Sep-18 17:31N 47°34' W 052°42'0 0.0
2014-Sep-18 16:34N 47°34' W 052°42'0 0.0
2014-Sep-18 15:25N 47°34' W 052°42'0 0.0
2014-Sep-18 14:34N 47°34' W 052°42'0 0.0
2014-Sep-18 13:25N 47°34' W 052°42'0 0.0
2014-Sep-18 12:31N 47°34' W 052°42'0 0.0
2014-Sep-18 11:28N 47°34' W 052°42'0 0.0
2014-Sep-18 10:25N 47°34' W 052°42'0 0.0
2014-Sep-18 09:34N 47°34' W 052°42'0 0.1
2014-Sep-18 08:31N 47°34' W 052°42'0 0.0
2014-Sep-18 07:31N 47°34' W 052°42'0 0.0
2014-Sep-18 06:31N 47°34' W 052°42'0 0.0
2014-Sep-18 05:28N 47°34' W 052°42'0 0.0
2014-Sep-18 04:31N 47°34' W 052°42'0 0.0
2014-Sep-18 03:31N 47°34' W 052°42'0 0.0
2014-Sep-18 02:31N 47°34' W 052°42'0 0.0
2014-Sep-18 01:31N 47°34' W 052°42'0 0.0
2014-Sep-18 00:28N 47°34' W 052°42'0 0.0
2014-Sep-17 23:25N 47°34' W 052°42'0 0.0
2014-Sep-17 22:34N 47°34' W 052°42'0 0.0
2014-Sep-17 21:28N 47°34' W 052°42'0 0.0
2014-Sep-17 20:10N 47°34' W 052°42'0 0.0
2014-Sep-17 19:22N 47°34' W 052°42'5 5.5
2014-Sep-17 18:31N 47°33' W 052°35'24 0.6
2014-Sep-16 04:16N 47°27' W 052°00'1114.3
2014-Sep-16 03:31N 47°30' W 052°16'1414.5
2014-Sep-16 02:31N 47°33' W 052°36'4 3.8
2014-Sep-16 01:30N 47°34' W 052°42'0 0.0
2014-Sep-16 00:32N 47°34' W 052°42'0 0.0
2014-Sep-15 23:29N 47°34' W 052°42'0 0.0
2014-Sep-15 22:29N 47°34' W 052°42'0 0.2
2014-Sep-15 21:33N 47°34' W 052°42'0 0.0
2014-Sep-15 20:30N 47°34' W 052°42'0 0.2
2014-Sep-15 19:28N 47°34' W 052°42'0 0.0
2014-Sep-15 18:28N 47°34' W 052°42'0 0.0
2014-Sep-15 17:25N 47°34' W 052°42'0 0.0
2014-Sep-15 16:28N 47°34' W 052°42'0 0.0
2014-Sep-15 15:31N 47°34' W 052°42'0 0.0
2014-Sep-15 14:28N 47°34' W 052°42'0 0.0
2014-Sep-15 13:28N 47°34' W 052°42'0 0.0
2014-Sep-15 12:28N 47°34' W 052°42'0 0.0
2014-Sep-15 11:28N 47°34' W 052°42'0 0.0
2014-Sep-15 10:31N 47°34' W 052°42'6 6.4
2014-Sep-15 09:32N 47°33' W 052°33'1312.6
2014-Sep-15 08:31N 47°29' W 052°15'6 0.2
2014-Sep-14 04:24N 47°28' W 052°06'1214.0
2014-Sep-14 03:31N 47°31' W 052°23'1312.3
2014-Sep-14 02:29N 47°34' W 052°42'0 0.0
2014-Sep-14 01:28N 47°34' W 052°42'0 0.0
2014-Sep-13 21:31N 47°34' W 052°42'0 0.0
2014-Sep-13 20:31N 47°34' W 052°42'0 0.0
2014-Sep-13 19:31N 47°34' W 052°42'0 0.0
2014-Sep-13 18:31N 47°34' W 052°42'0 0.0
2014-Sep-13 17:31N 47°34' W 052°42'0 0.0
2014-Sep-13 16:28N 47°34' W 052°42'0 0.0
2014-Sep-13 15:25N 47°34' W 052°42'0 0.0
2014-Sep-13 14:25N 47°34' W 052°42'0 0.0
2014-Sep-13 13:31N 47°34' W 052°42'0 0.0
2014-Sep-13 12:31N 47°34' W 052°42'0 0.0
2014-Sep-13 11:10N 47°34' W 052°42'0 0.0
2014-Sep-13 10:31N 47°34' W 052°42'0 0.0
2014-Sep-13 09:31N 47°34' W 052°42'0 0.0
2014-Sep-13 08:31N 47°34' W 052°42'0 0.0
2014-Sep-13 07:31N 47°34' W 052°42'0 0.0
2014-Sep-13 06:19N 47°34' W 052°42'0 0.0
2014-Sep-13 05:31N 47°34' W 052°42'0 0.0
2014-Sep-13 04:16N 47°34' W 052°42'0 0.0
2014-Sep-13 03:19N 47°34' W 052°42'0 0.0
2014-Sep-13 02:28N 47°34' W 052°42'0 0.0
2014-Sep-13 01:31N 47°34' W 052°42'0 0.0
2014-Sep-12 23:31N 47°34' W 052°42'0 0.1
2014-Sep-12 22:33N 47°34' W 052°42'5 4.6
2014-Sep-12 21:30N 47°33' W 052°35'17 0.4
2014-Sep-11 01:16N 47°29' W 052°10'1114.4
2014-Sep-11 00:29N 47°32' W 052°26'1111.6
2014-Sep-10 23:31N 47°34' W 052°42'0 0.0
2014-Sep-10 22:29N 47°34' W 052°42'0 0.0
2014-Sep-10 21:33N 47°34' W 052°42'0 0.0
2014-Sep-10 20:30N 47°34' W 052°42'0 0.0
2014-Sep-10 19:31N 47°34' W 052°42'0 0.0
2014-Sep-10 18:30N 47°34' W 052°42'0 0.0
2014-Sep-10 17:29N 47°34' W 052°42'0 0.0
2014-Sep-10 16:32N 47°34' W 052°42'0 0.0
2014-Sep-10 15:30N 47°34' W 052°42'9 8.9
2014-Sep-10 14:30N 47°32' W 052°29'1414.5
2014-Sep-10 13:30N 47°28' W 052°09'  
Track history (hours):
 
Tides and Currents Weather Stations Pressure Air Temp Water Temp Dewpoint Dewpoint Depression Visibility Wind Speed Wind Dir Waves Ship Positions

Maersk Dispatcher

Last reported at 2014-Sep-19 03:17 UTC. Time now 2014-Sep-20 14:01 UTC.
Position N 47°26' W 051°50'.

Length 89 m; draft 6.9 m.

Type: Other ship. MMSI: 316013080.

Date/timePositionNaut miles runAvg speedWind from/ knotsBaromVisibWave heightAir tempDewpointWater temp
2014-Sep-19 03:17N 47°26' W 051°50'1114.5
2014-Sep-19 02:30N 47°28' W 052°06'1414.2
2014-Sep-19 01:29N 47°32' W 052°26'1110.4
2014-Sep-19 00:28N 47°34' W 052°42'0 0.0
2014-Sep-18 23:28N 47°34' W 052°42'0 0.0
2014-Sep-18 22:34N 47°34' W 052°42'0 0.2
2014-Sep-18 21:25N 47°34' W 052°42'0 0.0
2014-Sep-18 20:25N 47°34' W 052°42'0 0.0
2014-Sep-18 19:34N 47°34' W 052°42'0 0.0
2014-Sep-18 18:22N 47°34' W 052°42'0 0.0
2014-Sep-18 17:31N 47°34' W 052°42'0 0.0
2014-Sep-18 16:34N 47°34' W 052°42'0 0.0
2014-Sep-18 15:25N 47°34' W 052°42'0 0.0
2014-Sep-18 14:34N 47°34' W 052°42'0 0.0
2014-Sep-18 13:25N 47°34' W 052°42'0 0.0
2014-Sep-18 12:31N 47°34' W 052°42'0 0.0
2014-Sep-18 11:28N 47°34' W 052°42'0 0.0
2014-Sep-18 10:25N 47°34' W 052°42'0 0.0
2014-Sep-18 09:34N 47°34' W 052°42'0 0.1
2014-Sep-18 08:31N 47°34' W 052°42'0 0.0
2014-Sep-18 07:31N 47°34' W 052°42'0 0.0
2014-Sep-18 06:31N 47°34' W 052°42'0 0.0
2014-Sep-18 05:28N 47°34' W 052°42'0 0.0
2014-Sep-18 04:31N 47°34' W 052°42'0 0.0
2014-Sep-18 03:31N 47°34' W 052°42'0 0.0
2014-Sep-18 02:31N 47°34' W 052°42'0 0.0
2014-Sep-18 01:31N 47°34' W 052°42'0 0.0
2014-Sep-18 00:28N 47°34' W 052°42'0 0.0
2014-Sep-17 23:25N 47°34' W 052°42'0 0.0
2014-Sep-17 22:34N 47°34' W 052°42'0 0.0
2014-Sep-17 21:28N 47°34' W 052°42'0 0.0
2014-Sep-17 20:10N 47°34' W 052°42'0 0.0
2014-Sep-17 19:22N 47°34' W 052°42'5 5.5
2014-Sep-17 18:31N 47°33' W 052°35'24 0.6
2014-Sep-16 04:16N 47°27' W 052°00'1114.3
2014-Sep-16 03:31N 47°30' W 052°16'1414.5
2014-Sep-16 02:31N 47°33' W 052°36'4 3.8
2014-Sep-16 01:30N 47°34' W 052°42'0 0.0
2014-Sep-16 00:32N 47°34' W 052°42'0 0.0
2014-Sep-15 23:29N 47°34' W 052°42'0 0.0
2014-Sep-15 22:29N 47°34' W 052°42'0 0.2
2014-Sep-15 21:33N 47°34' W 052°42'0 0.0
2014-Sep-15 20:30N 47°34' W 052°42'0 0.2
2014-Sep-15 19:28N 47°34' W 052°42'0 0.0
2014-Sep-15 18:28N 47°34' W 052°42'0 0.0
2014-Sep-15 17:25N 47°34' W 052°42'0 0.0
2014-Sep-15 16:28N 47°34' W 052°42'0 0.0
2014-Sep-15 15:31N 47°34' W 052°42'0 0.0
2014-Sep-15 14:28N 47°34' W 052°42'0 0.0
2014-Sep-15 13:28N 47°34' W 052°42'0 0.0
2014-Sep-15 12:28N 47°34' W 052°42'0 0.0
2014-Sep-15 11:28N 47°34' W 052°42'0 0.0
2014-Sep-15 10:31N 47°34' W 052°42'6 6.4
2014-Sep-15 09:32N 47°33' W 052°33'1312.6
2014-Sep-15 08:31N 47°29' W 052°15'6 0.2
2014-Sep-14 04:24N 47°28' W 052°06'1214.0
2014-Sep-14 03:31N 47°31' W 052°23'1312.3
2014-Sep-14 02:29N 47°34' W 052°42'0 0.0
2014-Sep-14 01:28N 47°34' W 052°42'0 0.0
2014-Sep-13 21:31N 47°34' W 052°42'0 0.0
2014-Sep-13 20:31N 47°34' W 052°42'0 0.0
2014-Sep-13 19:31N 47°34' W 052°42'0 0.0
2014-Sep-13 18:31N 47°34' W 052°42'0 0.0
2014-Sep-13 17:31N 47°34' W 052°42'0 0.0
2014-Sep-13 16:28N 47°34' W 052°42'0 0.0
2014-Sep-13 15:25N 47°34' W 052°42'0 0.0
2014-Sep-13 14:25N 47°34' W 052°42'0 0.0
2014-Sep-13 13:31N 47°34' W 052°42'0 0.0
2014-Sep-13 12:31N 47°34' W 052°42'0 0.0
2014-Sep-13 11:10N 47°34' W 052°42'0 0.0
2014-Sep-13 10:31N 47°34' W 052°42'0 0.0
2014-Sep-13 09:31N 47°34' W 052°42'0 0.0
2014-Sep-13 08:31N 47°34' W 052°42'0 0.0
2014-Sep-13 07:31N 47°34' W 052°42'0 0.0
2014-Sep-13 06:19N 47°34' W 052°42'0 0.0
2014-Sep-13 05:31N 47°34' W 052°42'0 0.0
2014-Sep-13 04:16N 47°34' W 052°42'0 0.0
2014-Sep-13 03:19N 47°34' W 052°42'0 0.0
2014-Sep-13 02:28N 47°34' W 052°42'0 0.0
2014-Sep-13 01:31N 47°34' W 052°42'0 0.0
2014-Sep-12 23:31N 47°34' W 052°42'0 0.1
2014-Sep-12 22:33N 47°34' W 052°42'5 4.6
2014-Sep-12 21:30N 47°33' W 052°35'17 0.4
2014-Sep-11 01:16N 47°29' W 052°10'1114.4
2014-Sep-11 00:29N 47°32' W 052°26'1111.6
2014-Sep-10 23:31N 47°34' W 052°42'0 0.0
2014-Sep-10 22:29N 47°34' W 052°42'0 0.0
2014-Sep-10 21:33N 47°34' W 052°42'0 0.0
2014-Sep-10 20:30N 47°34' W 052°42'0 0.0
2014-Sep-10 19:31N 47°34' W 052°42'0 0.0
2014-Sep-10 18:30N 47°34' W 052°42'0 0.0
2014-Sep-10 17:29N 47°34' W 052°42'0 0.0
2014-Sep-10 16:32N 47°34' W 052°42'0 0.0
2014-Sep-10 15:30N 47°34' W 052°42'9 8.9
2014-Sep-10 14:30N 47°32' W 052°29'1414.5
2014-Sep-10 13:30N 47°28' W 052°09'  

Dump ship's entire track history